createdAt,value
2018-07-25T00:02:16.671Z,93882.41
2018-07-25T00:04:45.358Z,93870.05
2018-07-25T00:07:14.055Z,93876.34
2018-07-25T00:09:42.650Z,93871.63
2018-07-25T00:12:11.296Z,93866.91
2018-07-25T00:14:39.958Z,93861.97
2018-07-25T00:17:08.609Z,93859.86
2018-07-25T00:19:37.249Z,93861.72
2018-07-25T00:22:05.978Z,93867.98
2018-07-25T00:24:34.671Z,93862.68
2018-07-25T00:27:03.366Z,93865.63
2018-07-25T00:29:31.974Z,93865.10
2018-07-25T00:32:00.667Z,93862.03
2018-07-25T00:34:29.359Z,93876.80
2018-07-25T00:36:57.955Z,93874.35
2018-07-25T00:39:26.599Z,93867.48
2018-07-25T00:41:55.213Z,93878.52
2018-07-25T00:44:23.798Z,93872.94
2018-07-25T00:46:52.409Z,93876.89
2018-07-25T00:49:21.027Z,93876.39
2018-07-25T00:51:49.649Z,93872.69
2018-07-25T00:54:18.273Z,93871.91
2018-07-25T00:56:46.866Z,93874.53
2018-07-25T00:59:15.479Z,93860.52
2018-07-25T01:01:44.125Z,93865.81
2018-07-25T01:04:12.750Z,93866.03
2018-07-25T01:06:41.422Z,93857.53
2018-07-25T01:09:11.340Z,93864.97
2018-07-25T01:11:40.102Z,93872.87
2018-07-25T01:14:08.769Z,93864.22
2018-07-25T01:16:37.458Z,93869.48
2018-07-25T01:19:06.161Z,93873.16
2018-07-25T01:21:34.837Z,93873.19
2018-07-25T01:24:03.575Z,93867.60
2018-07-25T01:26:32.279Z,93868.34
2018-07-25T01:29:00.895Z,93868.03
2018-07-25T01:31:29.547Z,93874.61
2018-07-25T01:33:58.148Z,93874.65
2018-07-25T01:36:26.882Z,93865.47
2018-07-25T01:38:55.519Z,93872.33
2018-07-25T01:41:24.152Z,93866.81
2018-07-25T01:43:52.788Z,93864.72
2018-07-25T01:46:21.474Z,93861.13
2018-07-25T01:48:50.115Z,93865.80
2018-07-25T01:51:18.777Z,93854.23
2018-07-25T01:53:47.393Z,93865.84
2018-07-25T01:56:16.046Z,93861.34
2018-07-25T01:58:44.742Z,93874.52
2018-07-25T02:01:13.362Z,93867.93
2018-07-25T02:03:42.027Z,93872.38
2018-07-25T02:06:10.610Z,93872.66
2018-07-25T02:08:39.238Z,93871.77
2018-07-25T02:11:07.935Z,93872.23
2018-07-25T02:13:36.617Z,93868.53
2018-07-25T02:16:05.314Z,93876.68
2018-07-25T02:18:34.071Z,93875.80
2018-07-25T02:21:02.708Z,93872.63
2018-07-25T02:23:31.402Z,93869.62
2018-07-25T02:26:00.022Z,93876.20
2018-07-25T02:28:28.630Z,93874.93
2018-07-25T02:30:57.250Z,93878.59
2018-07-25T02:33:31.075Z,93876.70
2018-07-25T02:35:59.703Z,93881.11
2018-07-25T02:38:28.299Z,93877.45
2018-07-25T02:40:56.914Z,93881.94
2018-07-25T02:43:25.630Z,93877.66
2018-07-25T02:45:54.381Z,93890.03
2018-07-25T02:48:22.963Z,93892.20
2018-07-25T02:50:51.575Z,93887.48
2018-07-25T02:53:20.170Z,93883.86
2018-07-25T02:55:48.790Z,93878.55
2018-07-25T02:58:17.391Z,93884.89
2018-07-25T03:00:46.038Z,93882.79
2018-07-25T03:03:14.647Z,93881.23
2018-07-25T03:05:43.293Z,93878.55
2018-07-25T03:08:11.971Z,93882.58
2018-07-25T03:10:44.698Z,93884.39
2018-07-25T03:13:13.359Z,93889.16
2018-07-25T03:15:41.976Z,93893.97
2018-07-25T03:18:10.717Z,93885.86
2018-07-25T03:20:39.491Z,93894.86
2018-07-25T03:23:08.778Z,93896.97
2018-07-25T03:25:37.425Z,93898.31
2018-07-25T03:28:06.013Z,93898.02
2018-07-25T03:30:34.590Z,93900.70
2018-07-25T03:33:03.255Z,93894.08
2018-07-25T03:35:31.896Z,93903.33
2018-07-25T03:38:00.562Z,93900.62
2018-07-25T03:40:29.689Z,93913.90
2018-07-25T03:42:58.320Z,93910.98
2018-07-25T03:45:26.942Z,93916.49
2018-07-25T03:47:55.571Z,93912.05
2018-07-25T03:50:24.425Z,93916.28
2018-07-25T03:52:53.037Z,93920.59
2018-07-25T03:55:21.643Z,93923.51
2018-07-25T03:57:50.292Z,93926.68
2018-07-25T04:00:19.075Z,93930.12
2018-07-25T04:02:47.703Z,93934.58
2018-07-25T04:05:16.488Z,93934.58
2018-07-25T04:07:45.164Z,93932.48
2018-07-25T04:10:13.778Z,93945.71
2018-07-25T04:12:42.532Z,93934.00
2018-07-25T04:15:11.177Z,93931.12
2018-07-25T04:17:46.051Z,93941.09
2018-07-25T04:20:15.892Z,93936.59
2018-07-25T04:22:44.554Z,93937.95
2018-07-25T04:25:13.198Z,93940.55
2018-07-25T04:27:43.920Z,93936.85
2018-07-25T04:30:13.826Z,93935.07
2018-07-25T04:32:43.537Z,93937.03
2018-07-25T04:35:13.682Z,93939.77
2018-07-25T04:37:43.068Z,93942.87
2018-07-25T04:40:11.757Z,93946.61
2018-07-25T04:42:40.493Z,93947.10
2018-07-25T04:45:10.549Z,93944.50
2018-07-25T04:47:39.274Z,93951.41
2018-07-25T04:50:08.194Z,93944.37
2018-07-25T04:52:37.470Z,93942.80
2018-07-25T04:55:06.186Z,93950.70
2018-07-25T04:57:34.856Z,93952.84
2018-07-25T05:00:04.817Z,93953.62
2018-07-25T05:02:33.501Z,93947.61
2018-07-25T05:05:02.208Z,93958.11
2018-07-25T05:07:30.948Z,93952.31
2018-07-25T05:09:59.641Z,93953.23
2018-07-25T05:12:28.297Z,93955.80
2018-07-25T05:14:56.939Z,93954.41
2018-07-25T05:17:25.635Z,93956.96
2018-07-25T05:19:54.320Z,93952.86
2018-07-25T05:22:22.919Z,93956.48
2018-07-25T05:24:51.588Z,93957.72
2018-07-25T05:27:20.189Z,93962.31
2018-07-25T05:29:48.868Z,93955.73
2018-07-25T05:32:17.526Z,93951.59
2018-07-25T05:34:46.190Z,93950.31
2018-07-25T05:37:14.847Z,93960.96
2018-07-25T05:39:43.542Z,93956.14
2018-07-25T05:42:12.271Z,93957.70
2018-07-25T05:44:40.913Z,93950.20
2018-07-25T05:47:09.627Z,93960.02
2018-07-25T05:49:38.211Z,93960.38
2018-07-25T05:52:06.798Z,93971.78
2018-07-25T05:54:35.431Z,93961.73
2018-07-25T05:57:04.080Z,93962.23
2018-07-25T05:59:32.679Z,93975.48
2018-07-25T06:02:01.383Z,93969.71
2018-07-25T06:04:30.056Z,93972.20
2018-07-25T06:06:58.728Z,93978.08
2018-07-25T06:09:27.341Z,93981.82
2018-07-25T06:11:55.978Z,93986.41
2018-07-25T06:14:24.695Z,93978.92
2018-07-25T06:16:53.298Z,93979.43
2018-07-25T06:19:22.021Z,93977.58
2018-07-25T06:21:50.685Z,93983.41
2018-07-25T06:24:19.348Z,93991.36
2018-07-25T06:26:48.018Z,93990.61
2018-07-25T06:29:16.672Z,93987.77
2018-07-25T06:31:45.328Z,93983.28
2018-07-25T06:34:14.030Z,93986.23
2018-07-25T06:36:42.719Z,93987.55
2018-07-25T06:39:13.015Z,93989.94
2018-07-25T06:41:41.747Z,93989.50
2018-07-25T06:44:10.695Z,93997.95
2018-07-25T06:46:39.510Z,93996.84
2018-07-25T06:49:08.814Z,93997.20
2018-07-25T06:51:37.471Z,93999.71
2018-07-25T06:54:06.393Z,94001.53
2018-07-25T06:56:35.012Z,93995.87
2018-07-25T06:59:03.678Z,94013.59
2018-07-25T07:01:32.407Z,94003.79
2018-07-25T07:04:01.032Z,94003.36
2018-07-25T07:06:29.698Z,94004.86
2018-07-25T07:08:58.341Z,94011.55
2018-07-25T07:11:27.036Z,94010.34
2018-07-25T07:13:55.735Z,94016.31
2018-07-25T07:16:24.439Z,94011.08
2018-07-25T07:18:53.050Z,94014.25
2018-07-25T07:21:21.726Z,94018.80
2018-07-25T07:23:50.372Z,94013.88
2018-07-25T07:26:20.186Z,94017.58
2018-07-25T07:28:48.788Z,94021.62
2018-07-25T07:34:10.052Z,94027.00
2018-07-25T07:36:38.709Z,94021.94
2018-07-25T07:39:10.767Z,94022.30
2018-07-25T07:41:39.715Z,94016.00
2018-07-25T07:44:08.439Z,94018.98
2018-07-25T07:46:37.581Z,94020.27
2018-07-25T07:49:06.404Z,94014.78
2018-07-25T07:51:35.050Z,94019.27
2018-07-25T07:54:03.740Z,94020.69
2018-07-25T07:56:32.820Z,94010.58
2018-07-25T07:59:01.494Z,94015.78
2018-07-25T08:01:30.280Z,94020.55
2018-07-25T08:03:58.884Z,94027.40
2018-07-25T08:06:27.579Z,94027.84
2018-07-25T08:08:56.256Z,94018.58
2018-07-25T08:11:24.986Z,94023.25
2018-07-25T08:13:53.721Z,94027.77
2018-07-25T08:16:22.352Z,94032.59
2018-07-25T08:18:51.018Z,94034.45
2018-07-25T08:21:19.853Z,94025.07
2018-07-25T08:23:48.470Z,94030.63
2018-07-25T08:26:17.160Z,94034.06
2018-07-25T08:28:45.788Z,94034.36
2018-07-25T08:31:14.972Z,94034.28
2018-07-25T08:33:43.570Z,94037.48
2018-07-25T08:36:12.201Z,94037.06
2018-07-25T08:38:42.222Z,94038.80
2018-07-25T08:41:10.919Z,94047.73
2018-07-25T08:43:40.729Z,94029.92
2018-07-25T08:46:10.564Z,94036.19
2018-07-25T08:48:39.656Z,94037.11
2018-07-25T08:51:08.345Z,94040.44
2018-07-25T08:53:37.452Z,94037.55
2018-07-25T08:56:06.359Z,94031.69
2018-07-25T08:58:35.028Z,94032.49
2018-07-25T09:01:03.764Z,94029.69
2018-07-25T09:03:32.460Z,94028.58
2018-07-25T09:06:01.102Z,94026.81
2018-07-25T09:08:29.794Z,94031.42
2018-07-25T09:10:58.479Z,94033.54
2018-07-25T09:13:27.147Z,94030.33
2018-07-25T09:15:55.815Z,94036.20
2018-07-25T09:18:24.585Z,94037.24
2018-07-25T09:20:53.443Z,94034.48
2018-07-25T09:23:22.088Z,94036.33
2018-07-25T09:25:50.743Z,94038.20
2018-07-25T09:28:19.371Z,94036.66
2018-07-25T09:30:48.039Z,94031.64
2018-07-25T09:33:16.650Z,94033.79
2018-07-25T09:35:45.339Z,94033.75
2018-07-25T09:38:14.008Z,94036.15
2018-07-25T09:40:42.681Z,94035.84
2018-07-25T09:43:11.331Z,94032.92
2018-07-25T09:45:40.194Z,94036.70
2018-07-25T09:48:08.851Z,94031.44
2018-07-25T09:50:37.512Z,94030.70
2018-07-25T09:53:06.331Z,94027.26
2018-07-25T09:55:36.337Z,94021.48
2018-07-25T09:58:04.989Z,94023.13
2018-07-25T10:00:38.947Z,94010.19
2018-07-25T10:03:07.653Z,94009.94
2018-07-25T10:05:36.379Z,94009.17
2018-07-25T10:08:05.051Z,94003.88
2018-07-25T10:10:33.662Z,93999.38
2018-07-25T10:13:02.329Z,93999.12
2018-07-25T10:15:30.982Z,93999.89
2018-07-25T10:17:59.676Z,93999.11
2018-07-25T10:20:28.384Z,94001.73
2018-07-25T10:22:57.061Z,93994.02
2018-07-25T10:25:25.693Z,94008.09
2018-07-25T10:27:54.399Z,94003.05
2018-07-25T10:30:23.237Z,93994.31
2018-07-25T10:32:52.041Z,93994.60
2018-07-25T10:35:20.655Z,94001.20
2018-07-25T10:37:49.320Z,94000.66
2018-07-25T10:40:17.932Z,94000.70
2018-07-25T10:42:46.634Z,94001.77
2018-07-25T10:45:15.324Z,94007.91
2018-07-25T10:47:44.091Z,94009.17
2018-07-25T10:50:12.810Z,94012.94
2018-07-25T10:52:42.075Z,94007.89
2018-07-25T10:55:10.731Z,94006.56
2018-07-25T10:57:39.459Z,94005.73
2018-07-25T11:00:09.031Z,94007.06
2018-07-25T11:02:38.188Z,94007.84
2018-07-25T11:05:07.168Z,93998.06
2018-07-25T11:07:35.854Z,94002.03
2018-07-25T11:10:05.006Z,93999.33
2018-07-25T11:12:33.673Z,94000.02
2018-07-25T11:15:02.295Z,94002.55
2018-07-25T11:17:30.960Z,93998.14
2018-07-25T11:19:59.625Z,94007.44
2018-07-25T11:22:28.254Z,93996.43
2018-07-25T11:24:56.930Z,94007.05
2018-07-25T11:27:25.892Z,94012.58
2018-07-25T11:29:54.555Z,94014.93
2018-07-25T11:32:23.303Z,94019.71
2018-07-25T11:34:51.949Z,94028.34
2018-07-25T11:37:20.537Z,94027.11
2018-07-25T11:39:49.224Z,94029.86
2018-07-25T11:42:17.896Z,94027.52
2018-07-25T11:44:46.568Z,94023.22
2018-07-25T11:47:15.226Z,94017.33
2018-07-25T11:49:43.915Z,94026.97
2018-07-25T11:52:12.627Z,94011.88
2018-07-25T11:54:41.316Z,94007.31
2018-07-25T11:57:10.079Z,94005.63
2018-07-25T11:59:38.779Z,93997.36
2018-07-25T12:02:07.518Z,93998.74
2018-07-25T12:04:36.172Z,93998.03
2018-07-25T12:07:04.782Z,93998.47
2018-07-25T12:09:33.439Z,93995.36
2018-07-25T12:12:02.166Z,93995.16
2018-07-25T12:14:30.834Z,93996.73
2018-07-25T12:16:59.625Z,93996.47
2018-07-25T12:19:28.271Z,93998.84
2018-07-25T12:21:56.897Z,93986.92
2018-07-25T12:24:25.535Z,93992.22
2018-07-25T12:26:54.171Z,93991.00
2018-07-25T12:29:22.874Z,93986.03
2018-07-25T12:31:51.535Z,93981.06
2018-07-25T12:34:20.222Z,93984.17
2018-07-25T12:36:48.932Z,93983.14
2018-07-25T12:39:17.629Z,93985.72
2018-07-25T12:41:46.344Z,93993.72
2018-07-25T12:44:15.020Z,93986.64
2018-07-25T12:46:43.723Z,93983.42
2018-07-25T12:49:12.346Z,93987.09
2018-07-25T12:51:41.026Z,93981.94
2018-07-25T12:54:09.772Z,93980.41
2018-07-25T12:56:38.367Z,93979.57
2018-07-25T12:59:07.064Z,93976.69
2018-07-25T13:01:35.781Z,93973.71
2018-07-25T13:04:04.505Z,93970.61
2018-07-25T13:06:33.234Z,93962.61
2018-07-25T13:09:01.901Z,93959.10
2018-07-25T13:11:31.226Z,93963.02
2018-07-25T13:13:59.865Z,93964.47
2018-07-25T13:16:28.789Z,93957.48
2018-07-25T13:18:57.431Z,93951.41
2018-07-25T13:21:26.147Z,93960.07
2018-07-25T13:23:54.822Z,93970.94
2018-07-25T13:26:23.516Z,93964.17
2018-07-25T13:28:52.280Z,93970.08
2018-07-25T13:31:21.550Z,93972.47
2018-07-25T13:33:50.170Z,93968.50
2018-07-25T13:36:18.957Z,93963.23
2018-07-25T13:38:47.638Z,93960.22
2018-07-25T13:41:16.384Z,93959.70
2018-07-25T13:43:45.034Z,93964.41
2018-07-25T13:46:13.779Z,93977.03
2018-07-25T13:48:42.412Z,93967.58
2018-07-25T13:51:11.066Z,93967.14
2018-07-25T13:53:39.737Z,93960.70
2018-07-25T13:56:08.400Z,93962.12
2018-07-25T13:58:37.104Z,93964.55
2018-07-25T14:01:05.919Z,93950.52
2018-07-25T14:03:34.545Z,93950.05
2018-07-25T14:06:03.204Z,93951.83
2018-07-25T14:08:31.920Z,93943.42
2018-07-25T14:11:00.646Z,93947.14
2018-07-25T14:13:29.296Z,93943.39
2018-07-25T14:15:57.976Z,93944.50
2018-07-25T14:18:26.662Z,93940.44
2018-07-25T14:20:55.343Z,93939.45
2018-07-25T14:23:24.041Z,93938.50
2018-07-25T14:25:52.724Z,93942.73
2018-07-25T14:28:21.400Z,93934.91
2018-07-25T14:30:50.104Z,93950.38
2018-07-25T14:33:18.769Z,93945.95
2018-07-25T14:35:47.476Z,93936.80
2018-07-25T14:38:16.152Z,93940.04
2018-07-25T14:40:44.939Z,93945.60
2018-07-25T14:43:13.669Z,93949.71
2018-07-25T14:45:42.266Z,93959.27
2018-07-25T14:48:10.914Z,93965.36
2018-07-25T14:50:39.567Z,93969.69
2018-07-25T14:53:08.239Z,93968.59
2018-07-25T14:58:10.752Z,93973.21
2018-07-25T15:00:39.462Z,93972.37
2018-07-25T15:03:08.094Z,93970.14
2018-07-25T15:05:36.755Z,93972.02
2018-07-25T15:08:05.952Z,93971.34
2018-07-25T15:10:34.630Z,93971.55
2018-07-25T15:13:03.397Z,93972.63
2018-07-25T15:15:32.062Z,93968.65
2018-07-25T15:18:00.802Z,93966.03
2018-07-25T15:20:29.503Z,93969.28
2018-07-25T15:22:58.315Z,93974.52
2018-07-25T15:25:26.973Z,93969.45
2018-07-25T15:27:55.662Z,93965.13
2018-07-25T15:30:24.396Z,93965.23
2018-07-25T15:32:53.113Z,93962.08
2018-07-25T15:35:21.767Z,93967.75
2018-07-25T15:37:50.463Z,93972.45
2018-07-25T15:40:19.198Z,93977.27
2018-07-25T15:42:47.934Z,93976.02
2018-07-25T15:45:16.578Z,93982.11
2018-07-25T15:47:45.295Z,93982.23
2018-07-25T15:50:14.008Z,93985.66
2018-07-25T15:52:42.770Z,93989.95
2018-07-25T15:55:11.587Z,93981.77
2018-07-25T15:57:40.338Z,93978.27
2018-07-25T16:00:09.290Z,93976.52
2018-07-25T16:02:38.383Z,93978.80
2018-07-25T16:05:07.172Z,93970.88
2018-07-25T16:07:35.864Z,93969.73
2018-07-25T16:10:05.041Z,93968.91
2018-07-25T16:12:33.744Z,93971.51
2018-07-25T16:15:02.681Z,93969.17
2018-07-25T16:17:31.622Z,93966.81
2018-07-25T16:20:00.396Z,93970.82
2018-07-25T16:22:29.164Z,93972.20
2018-07-25T16:24:57.883Z,93982.58
2018-07-25T16:27:26.654Z,93992.73
2018-07-25T16:29:55.400Z,94000.53
2018-07-25T16:32:24.213Z,93996.91
2018-07-25T16:34:52.866Z,94000.38
2018-07-25T16:37:21.610Z,94001.72
2018-07-25T16:39:50.242Z,94001.48
2018-07-25T16:42:18.917Z,94000.67
2018-07-25T16:44:47.541Z,94004.95
2018-07-25T16:47:16.211Z,94002.33
2018-07-25T16:49:44.881Z,93996.46
2018-07-25T16:52:13.525Z,94007.33
2018-07-25T16:54:42.321Z,94016.88
2018-07-25T16:57:10.957Z,94024.56
2018-07-25T16:59:39.700Z,94029.58
2018-07-25T17:02:08.456Z,94027.41
2018-07-25T17:04:37.265Z,94033.20
2018-07-25T17:07:06.771Z,94030.66
2018-07-25T17:09:35.760Z,94043.35
2018-07-25T17:12:04.490Z,94046.45
2018-07-25T17:14:33.249Z,94050.89
2018-07-25T17:17:01.893Z,94050.08
2018-07-25T17:19:30.623Z,94055.65
2018-07-25T17:21:59.317Z,94056.34
2018-07-25T17:24:28.008Z,94058.08
2018-07-25T17:26:56.664Z,94057.84
2018-07-25T17:29:25.346Z,94062.87
2018-07-25T17:31:54.198Z,94061.00
2018-07-25T17:34:22.904Z,94069.94
2018-07-25T17:36:51.692Z,94069.57
2018-07-25T17:39:20.398Z,94077.39
2018-07-25T17:41:49.128Z,94084.20
2018-07-25T17:44:17.834Z,94086.28
2018-07-25T17:46:46.612Z,94095.51
2018-07-25T17:49:15.427Z,94102.91
2018-07-25T17:51:44.167Z,94102.53
2018-07-25T17:54:12.776Z,94103.55
2018-07-25T17:56:41.435Z,94099.30
2018-07-25T17:59:10.143Z,94107.94
2018-07-25T18:01:38.872Z,94108.95
2018-07-25T18:04:07.718Z,94108.05
2018-07-25T18:06:36.479Z,94118.05
2018-07-25T18:09:08.055Z,94113.25
2018-07-25T18:11:36.723Z,94113.02
2018-07-25T18:14:10.760Z,94113.28
2018-07-25T18:16:39.587Z,94109.77
2018-07-25T18:19:08.390Z,94110.52
2018-07-25T18:21:37.083Z,94110.24
2018-07-25T18:24:05.893Z,94114.17
2018-07-25T18:26:35.189Z,94109.81
2018-07-25T18:29:04.009Z,94112.23
2018-07-25T18:31:32.642Z,94110.72
2018-07-25T18:34:01.344Z,94105.16
2018-07-25T18:36:30.207Z,94114.91
2018-07-25T18:38:58.931Z,94109.53
2018-07-25T18:41:27.801Z,94114.81
2018-07-25T18:43:56.930Z,94124.27
2018-07-25T18:46:26.357Z,94129.27
2018-07-25T18:51:28.891Z,94133.59
2018-07-25T18:57:06.410Z,94142.84
2018-07-25T18:59:35.936Z,94135.02
2018-07-25T19:02:04.656Z,94139.50
2018-07-25T19:04:33.331Z,94150.79
2018-07-25T19:07:02.748Z,94158.36
2018-07-25T19:09:31.425Z,94150.22
2018-07-25T19:12:00.176Z,94155.72
2018-07-25T19:14:33.909Z,94155.47
2018-07-25T19:17:02.567Z,94156.91
2018-07-25T19:21:59.365Z,94168.25
2018-07-25T19:24:28.070Z,94168.31
2018-07-25T19:26:56.725Z,94155.69
2018-07-25T19:29:26.756Z,94151.41
2018-07-25T19:31:55.460Z,94151.95
2018-07-25T19:34:24.081Z,94150.38
2018-07-25T19:36:52.701Z,94145.78
2018-07-25T19:39:21.412Z,94141.20
2018-07-25T19:41:50.383Z,94143.39
2018-07-25T19:44:19.084Z,94147.07
2018-07-25T19:46:47.685Z,94144.08
2018-07-25T19:51:24.805Z,94141.41
2018-07-25T19:53:53.467Z,94136.74
2018-07-25T19:56:22.212Z,94139.03
2018-07-25T19:58:50.934Z,94136.84
2018-07-25T20:01:20.613Z,94131.86
2018-07-25T20:03:49.258Z,94125.42
2018-07-25T20:06:17.900Z,94122.42
2018-07-25T20:08:47.143Z,94124.31
2018-07-25T20:11:15.806Z,94121.42
2018-07-25T20:13:49.605Z,94117.75
2018-07-25T20:16:18.588Z,94117.64
2018-07-25T20:18:47.195Z,94111.98
2018-07-25T20:21:15.817Z,94115.39
2018-07-25T20:23:44.470Z,94105.56
2018-07-25T20:26:13.052Z,94112.39
2018-07-25T20:28:42.756Z,94123.69
2018-07-25T20:31:11.399Z,94124.68
2018-07-25T20:33:40.160Z,94125.63
2018-07-25T20:36:08.807Z,94125.95
2018-07-25T20:38:37.482Z,94126.41
2018-07-25T20:41:06.142Z,94133.49
2018-07-25T20:43:34.813Z,94126.30
2018-07-25T20:46:03.504Z,94132.87
2018-07-25T20:48:32.188Z,94129.00
2018-07-25T20:51:00.871Z,94125.25
2018-07-25T20:53:29.570Z,94122.90
2018-07-25T20:55:58.221Z,94117.76
2018-07-25T20:58:26.869Z,94115.00
2018-07-25T21:00:55.582Z,94112.62
2018-07-25T21:03:24.233Z,94116.57
2018-07-25T21:05:52.846Z,94117.14
2018-07-25T21:08:21.461Z,94118.27
2018-07-25T21:10:50.110Z,94124.52
2018-07-25T21:13:18.725Z,94115.83
2018-07-25T21:15:47.382Z,94120.77
2018-07-25T21:18:16.081Z,94119.78
2018-07-25T21:20:44.714Z,94126.56
2018-07-25T21:23:13.374Z,94122.81
2018-07-25T21:25:42.034Z,94123.84
2018-07-25T21:28:10.661Z,94132.03
2018-07-25T21:30:39.303Z,94123.51
2018-07-25T21:33:08.038Z,94125.33
2018-07-25T21:35:36.638Z,94121.12
2018-07-25T21:38:05.354Z,94119.80
2018-07-25T21:40:33.967Z,94123.96
2018-07-25T21:43:02.581Z,94111.90
2018-07-25T21:45:31.776Z,94111.16
2018-07-25T21:48:00.376Z,94107.91
2018-07-25T21:50:29.038Z,94109.18
2018-07-25T21:52:57.645Z,94111.96
2018-07-25T21:55:26.302Z,94111.13
2018-07-25T21:57:55.693Z,94118.73
2018-07-25T22:00:24.472Z,94096.48
2018-07-25T22:02:53.108Z,94097.80
2018-07-25T22:05:21.705Z,94095.23
2018-07-25T22:07:50.349Z,94096.27
2018-07-25T22:10:18.961Z,94099.73
2018-07-25T22:12:47.568Z,94096.36
2018-07-25T22:15:16.195Z,94104.25
2018-07-25T22:17:44.844Z,94102.36
2018-07-25T22:20:13.576Z,94108.49
2018-07-25T22:22:42.210Z,94107.44
2018-07-25T22:25:11.261Z,94113.18
2018-07-25T22:27:40.536Z,94115.28
2018-07-25T22:30:09.568Z,94113.71
2018-07-25T22:32:38.224Z,94113.47
2018-07-25T22:35:07.031Z,94109.81
2018-07-25T22:37:35.646Z,94105.38
2018-07-25T22:40:04.337Z,94101.72
2018-07-25T22:42:32.991Z,94106.50
2018-07-25T22:45:01.610Z,94104.30
2018-07-25T22:47:30.227Z,94105.58
2018-07-25T22:49:58.822Z,94103.77
2018-07-25T22:52:27.514Z,94102.89
2018-07-25T22:54:56.103Z,94108.02
2018-07-25T22:57:24.819Z,94111.38
2018-07-25T22:59:53.462Z,94112.84
2018-07-25T23:02:22.100Z,94106.72
2018-07-25T23:04:50.750Z,94103.69
2018-07-25T23:07:19.339Z,94103.63
2018-07-25T23:09:47.937Z,94102.95
2018-07-25T23:12:16.564Z,94103.88
2018-07-25T23:14:45.264Z,94102.61
2018-07-25T23:17:13.913Z,94105.00
2018-07-25T23:19:42.549Z,94114.80
2018-07-25T23:22:11.199Z,94112.06
2018-07-25T23:24:39.808Z,94117.48
2018-07-25T23:27:08.439Z,94115.67
2018-07-25T23:29:37.075Z,94114.50
2018-07-25T23:32:05.711Z,94112.89
2018-07-25T23:34:34.474Z,94109.59
2018-07-25T23:37:03.075Z,94114.27
2018-07-25T23:39:31.706Z,94115.14
2018-07-25T23:42:00.332Z,94111.19
2018-07-25T23:44:28.971Z,94115.88
2018-07-25T23:46:57.639Z,94113.20
2018-07-25T23:49:26.279Z,94113.33
2018-07-25T23:51:54.923Z,94123.33
2018-07-25T23:54:23.587Z,94121.12
2018-07-25T23:56:52.191Z,94121.86
2018-07-25T23:59:20.804Z,94131.70
